createdAt,value
2023-04-01T00:00:48.567Z,48.34
2023-04-01T00:01:48.561Z,48.02
2023-04-01T00:02:48.752Z,47.05
2023-04-01T00:03:48.654Z,49.63
2023-04-01T00:04:48.677Z,49.31
2023-04-01T00:05:48.505Z,48.02
2023-04-01T00:06:48.500Z,47.37
2023-04-01T00:07:48.482Z,46.41
2023-04-01T00:08:48.484Z,45.60
2023-04-01T00:09:48.461Z,47.70
2023-04-01T00:10:48.456Z,46.41
2023-04-01T00:11:48.443Z,47.05
2023-04-01T00:12:48.431Z,44.79
2023-04-01T00:13:48.450Z,44.96
2023-04-01T00:14:48.410Z,44.96
2023-04-01T00:15:48.434Z,46.08
2023-04-01T00:16:48.447Z,44.79
2023-04-01T00:17:48.425Z,43.99
2023-04-01T00:18:48.510Z,44.79
2023-04-01T00:19:48.356Z,45.28
2023-04-01T00:20:48.353Z,45.76
2023-04-01T00:21:48.332Z,45.12
2023-04-01T00:22:48.324Z,43.99
2023-04-01T00:23:48.321Z,44.63
2023-04-01T00:24:48.315Z,44.96
2023-04-01T00:25:48.291Z,45.28
2023-04-01T00:26:48.282Z,45.76
2023-04-01T00:27:48.277Z,44.47
2023-04-01T00:28:48.272Z,42.86
2023-04-01T00:29:48.253Z,43.18
2023-04-01T00:30:48.259Z,44.63
2023-04-01T00:31:48.243Z,43.51
2023-04-01T00:32:48.287Z,46.41
2023-04-01T00:33:48.229Z,45.44
2023-04-01T00:34:48.210Z,45.60
2023-04-01T00:35:48.214Z,46.73
2023-04-01T00:36:48.185Z,45.76
2023-04-01T00:37:48.172Z,44.96
2023-04-01T00:38:48.179Z,44.31
2023-04-01T00:39:48.159Z,45.28
2023-04-01T00:40:48.153Z,43.67
2023-04-01T00:41:48.141Z,43.99
2023-04-01T00:42:48.122Z,45.28
2023-04-01T00:43:48.118Z,45.76
2023-04-01T00:44:48.101Z,45.92
2023-04-01T00:45:48.086Z,46.08
2023-04-01T00:46:48.094Z,46.25
2023-04-01T00:47:48.108Z,47.53
2023-04-01T00:48:48.082Z,48.50
2023-04-01T00:49:48.051Z,48.02
2023-04-01T00:50:48.051Z,46.89
2023-04-01T00:51:48.038Z,48.34
2023-04-01T00:52:48.019Z,47.37
2023-04-01T00:53:48.022Z,46.89
2023-04-01T00:54:48.001Z,45.76
2023-04-01T00:55:47.984Z,44.31
2023-04-01T00:56:48.007Z,44.31
2023-04-01T00:57:47.966Z,45.12
2023-04-01T00:58:47.976Z,46.08
2023-04-01T00:59:47.953Z,46.25
2023-04-01T01:00:47.951Z,47.86
2023-04-01T01:01:47.956Z,48.02
2023-04-01T01:02:48.001Z,46.73
2023-04-01T01:03:47.922Z,50.27
2023-04-01T01:04:47.897Z,50.27
2023-04-01T01:05:49.495Z,50.92
2023-04-01T01:06:47.879Z,52.05
2023-04-01T01:07:47.865Z,51.88
2023-04-01T01:08:47.866Z,51.72
2023-04-01T01:09:47.847Z,49.31
2023-04-01T01:10:47.834Z,51.88
2023-04-01T01:11:47.826Z,51.72
2023-04-01T01:12:47.816Z,52.53
2023-04-01T01:13:47.825Z,51.72
2023-04-01T01:14:47.794Z,53.01
2023-04-01T01:15:47.795Z,52.21
2023-04-01T01:16:47.783Z,50.27
2023-04-01T01:17:48.983Z,47.53
2023-04-01T01:18:48.889Z,46.25
2023-04-01T01:19:48.863Z,44.96
2023-04-01T01:20:48.866Z,45.28
2023-04-01T01:21:48.842Z,44.63
2023-04-01T01:22:48.836Z,43.51
2023-04-01T01:23:48.841Z,45.44
2023-04-01T01:24:48.818Z,45.60
2023-04-01T01:25:48.797Z,45.92
2023-04-01T01:26:48.792Z,44.15
2023-04-01T01:27:48.796Z,43.67
2023-04-01T01:28:48.778Z,43.83
2023-04-01T01:29:48.758Z,46.73
2023-04-01T01:30:48.781Z,45.12
2023-04-01T01:31:48.746Z,44.96
2023-04-01T01:32:48.756Z,44.47
2023-04-01T01:33:48.749Z,45.76
2023-04-01T01:34:48.710Z,45.28
2023-04-01T01:35:48.745Z,44.79
2023-04-01T01:36:48.698Z,42.86
2023-04-01T01:37:48.686Z,42.22
2023-04-01T01:38:48.689Z,45.12
2023-04-01T01:39:48.736Z,45.76
2023-04-01T01:40:48.656Z,46.08
2023-04-01T01:41:48.644Z,45.44
2023-04-01T01:42:48.632Z,43.83
2023-04-01T01:43:48.633Z,46.08
2023-04-01T01:44:48.631Z,46.08
2023-04-01T01:45:48.646Z,44.96
2023-04-01T01:46:48.591Z,43.02
2023-04-01T01:47:48.612Z,46.08
2023-04-01T01:48:48.584Z,42.86
2023-04-01T01:49:48.565Z,42.22
2023-04-01T01:50:48.564Z,42.22
2023-04-01T01:51:48.550Z,42.38
2023-04-01T01:52:48.561Z,44.47
2023-04-01T01:53:48.557Z,43.99
2023-04-01T01:54:48.532Z,43.18
2023-04-01T01:55:48.510Z,42.38
2023-04-01T01:56:48.520Z,42.54
2023-04-01T01:57:48.498Z,42.70
2023-04-01T01:58:48.496Z,43.67
2023-04-01T01:59:48.489Z,43.83
2023-04-01T02:00:48.475Z,44.96
2023-04-01T02:01:48.476Z,43.67
2023-04-01T02:02:48.595Z,44.15
2023-04-01T02:03:48.442Z,45.44
2023-04-01T02:04:48.559Z,45.12
2023-04-01T02:05:48.418Z,43.51
2023-04-01T02:06:48.419Z,42.38
2023-04-01T02:07:48.412Z,43.18
2023-04-01T02:08:48.393Z,42.70
2023-04-01T02:09:48.391Z,41.73
2023-04-01T02:10:48.367Z,43.99
2023-04-01T02:11:48.362Z,42.70
2023-04-01T02:12:48.337Z,43.18
2023-04-01T02:13:48.335Z,43.67
2023-04-01T02:14:48.333Z,42.86
2023-04-01T02:15:48.352Z,43.83
2023-04-01T02:16:48.304Z,44.96
2023-04-01T02:17:48.300Z,44.15
2023-04-01T02:18:48.282Z,45.92
2023-04-01T02:19:48.285Z,47.05
2023-04-01T02:20:48.281Z,47.86
2023-04-01T02:21:48.250Z,47.86
2023-04-01T02:22:48.242Z,48.18
2023-04-01T02:23:48.230Z,48.18
2023-04-01T02:24:48.243Z,48.50
2023-04-01T02:25:48.228Z,47.86
2023-04-01T02:26:48.207Z,45.60
2023-04-01T02:27:48.220Z,44.96
2023-04-01T02:28:48.176Z,43.67
2023-04-01T02:29:48.190Z,43.34
2023-04-01T02:30:48.161Z,43.51
2023-04-01T02:31:48.167Z,42.54
2023-04-01T02:32:48.183Z,43.67
2023-04-01T02:33:48.129Z,42.70
2023-04-01T02:34:48.127Z,44.47
2023-04-01T02:35:48.146Z,42.70
2023-04-01T02:36:48.097Z,43.02
2023-04-01T02:37:48.097Z,44.96
2023-04-01T02:38:48.090Z,45.28
2023-04-01T02:39:48.083Z,43.51
2023-04-01T02:40:48.067Z,43.99
2023-04-01T02:41:48.053Z,44.15
2023-04-01T02:42:48.051Z,43.02
2023-04-01T02:43:48.036Z,45.60
2023-04-01T02:44:48.045Z,43.99
2023-04-01T02:45:48.027Z,43.51
2023-04-01T02:46:48.048Z,43.67
2023-04-01T02:47:48.032Z,42.70
2023-04-01T02:48:47.993Z,41.89
2023-04-01T02:49:47.980Z,42.06
2023-04-01T02:50:47.987Z,43.67
2023-04-01T02:51:47.990Z,43.02
2023-04-01T02:52:47.942Z,42.86
2023-04-01T02:53:47.961Z,43.02
2023-04-01T02:54:47.946Z,44.79
2023-04-01T02:55:47.911Z,45.12
2023-04-01T02:56:48.975Z,44.15
2023-04-01T02:57:47.899Z,43.99
2023-04-01T02:58:47.896Z,45.12
2023-04-01T02:59:47.893Z,43.99
2023-04-01T03:00:47.926Z,42.86
2023-04-01T03:01:48.861Z,43.83
2023-04-01T03:02:47.899Z,43.83
2023-04-01T03:03:47.849Z,43.83
2023-04-01T03:04:47.843Z,43.02
2023-04-01T03:05:47.821Z,42.54
2023-04-01T03:06:47.834Z,43.51
2023-04-01T03:07:47.803Z,44.79
2023-04-01T03:08:47.805Z,43.67
2023-04-01T03:09:47.808Z,44.96
2023-04-01T03:10:47.780Z,44.96
2023-04-01T03:11:47.777Z,43.99
2023-04-01T03:12:47.755Z,43.83
2023-04-01T03:13:47.760Z,44.15
2023-04-01T03:14:47.781Z,44.15
2023-04-01T03:15:47.722Z,44.96
2023-04-01T03:16:47.728Z,44.15
2023-04-01T03:17:47.771Z,43.67
2023-04-01T03:18:47.689Z,43.83
2023-04-01T03:19:47.680Z,45.12
2023-04-01T03:20:47.689Z,45.28
2023-04-01T03:21:47.665Z,44.96
2023-04-01T03:22:47.670Z,44.15
2023-04-01T03:23:47.644Z,44.63
2023-04-01T03:24:47.651Z,44.96
2023-04-01T03:25:47.627Z,44.47
2023-04-01T03:26:47.632Z,44.31
2023-04-01T03:27:47.620Z,44.47
2023-04-01T03:28:47.599Z,46.89
2023-04-01T03:29:47.623Z,47.37
2023-04-01T03:30:47.612Z,48.50
2023-04-01T03:31:47.557Z,48.50
2023-04-01T03:32:47.575Z,48.34
2023-04-01T03:33:47.542Z,49.79
2023-04-01T03:34:47.540Z,52.21
2023-04-01T03:35:47.531Z,50.92
2023-04-01T03:36:47.558Z,51.08
2023-04-01T03:37:47.491Z,50.92
2023-04-01T03:38:48.501Z,48.98
2023-04-01T03:39:47.498Z,50.43
2023-04-01T03:40:47.489Z,48.50
2023-04-01T03:41:47.475Z,49.79
2023-04-01T03:42:47.482Z,49.15
2023-04-01T03:43:47.451Z,47.05
2023-04-01T03:44:47.436Z,47.70
2023-04-01T03:45:47.490Z,47.37
2023-04-01T03:46:47.421Z,46.73
2023-04-01T03:47:47.432Z,46.57
2023-04-01T03:48:47.400Z,44.47
2023-04-01T03:49:47.396Z,45.44
2023-04-01T03:50:47.384Z,45.28
2023-04-01T03:51:47.377Z,45.12
2023-04-01T03:52:47.354Z,44.96
2023-04-01T03:53:47.346Z,44.63
2023-04-01T03:54:47.326Z,44.47
2023-04-01T03:55:47.340Z,44.31
2023-04-01T03:56:47.350Z,45.12
2023-04-01T03:57:47.315Z,44.47
2023-04-01T03:58:47.302Z,44.31
2023-04-01T03:59:47.287Z,45.76
2023-04-01T04:00:47.290Z,44.47
2023-04-01T04:01:47.270Z,44.79
2023-04-01T04:02:47.374Z,45.44
2023-04-01T04:03:47.329Z,47.05
2023-04-01T04:04:47.314Z,48.02
2023-04-01T04:05:47.240Z,48.98
2023-04-01T04:06:47.222Z,48.50
2023-04-01T04:07:47.218Z,48.98
2023-04-01T04:08:47.197Z,48.34
2023-04-01T04:09:47.185Z,48.50
2023-04-01T04:10:47.186Z,48.02
2023-04-01T04:11:47.179Z,47.53
2023-04-01T04:12:47.149Z,48.66
2023-04-01T04:13:47.147Z,47.70
2023-04-01T04:14:47.139Z,47.05
2023-04-01T04:15:47.164Z,45.60
2023-04-01T04:16:47.116Z,46.41
2023-04-01T04:17:47.137Z,46.57
2023-04-01T04:18:47.099Z,46.25
2023-04-01T04:19:47.179Z,46.25
2023-04-01T04:20:47.080Z,47.21
2023-04-01T04:21:47.080Z,48.50
2023-04-01T04:22:47.063Z,47.70
2023-04-01T04:23:47.060Z,48.02
2023-04-01T04:24:47.031Z,48.50
2023-04-01T04:25:47.036Z,49.95
2023-04-01T04:26:47.006Z,49.79
2023-04-01T04:27:48.014Z,48.98
2023-04-01T04:28:46.992Z,48.02
2023-04-01T04:29:46.980Z,48.34
2023-04-01T04:30:46.968Z,47.86
2023-04-01T04:31:47.034Z,47.86
2023-04-01T04:32:47.005Z,46.25
2023-04-01T04:33:46.946Z,47.86
2023-04-01T04:34:46.950Z,47.53
2023-04-01T04:35:46.928Z,48.98
2023-04-01T04:36:46.941Z,47.70
2023-04-01T04:37:46.894Z,46.57
2023-04-01T04:38:46.896Z,46.57
2023-04-01T04:39:47.879Z,46.25
2023-04-01T04:40:46.870Z,49.15
2023-04-01T04:41:46.875Z,47.21
2023-04-01T04:42:46.847Z,47.21
2023-04-01T04:43:46.857Z,45.92
2023-04-01T04:44:46.823Z,47.21
2023-04-01T04:45:46.824Z,47.21
2023-04-01T04:46:46.861Z,47.21
2023-04-01T04:47:46.846Z,46.08
2023-04-01T04:48:46.786Z,46.73
2023-04-01T04:49:46.776Z,46.73
2023-04-01T04:50:46.764Z,46.89
2023-04-01T04:51:46.763Z,46.25
2023-04-01T04:52:46.750Z,46.57
2023-04-01T04:53:46.741Z,45.92
2023-04-01T04:54:46.729Z,47.05
2023-04-01T04:55:46.724Z,47.70
2023-04-01T04:56:46.792Z,47.21
2023-04-01T04:57:46.699Z,46.41
2023-04-01T04:58:46.678Z,46.41
2023-04-01T04:59:46.674Z,47.86
2023-04-01T05:00:46.672Z,47.21
2023-04-01T05:01:46.924Z,46.25
2023-04-01T05:02:46.800Z,46.73
2023-04-01T05:03:46.667Z,47.21
2023-04-01T05:04:46.637Z,46.89
2023-04-01T05:05:46.614Z,48.02
2023-04-01T05:06:46.616Z,46.89
2023-04-01T05:07:46.609Z,42.38
2023-04-01T05:08:46.583Z,47.70
2023-04-01T05:09:46.581Z,46.25
2023-04-01T05:10:46.592Z,46.25
2023-04-01T05:11:46.564Z,46.08
2023-04-01T05:12:46.552Z,46.08
2023-04-01T05:13:46.545Z,45.92
2023-04-01T05:14:46.531Z,45.92
2023-04-01T05:15:46.512Z,47.53
2023-04-01T05:16:46.551Z,48.02
2023-04-01T05:17:46.579Z,47.21
2023-04-01T05:18:46.484Z,47.05
2023-04-01T05:19:46.484Z,46.57
2023-04-01T05:20:46.465Z,46.73
2023-04-01T05:21:46.471Z,47.53
2023-04-01T05:22:46.443Z,46.73
2023-04-01T05:23:46.445Z,46.89
2023-04-01T05:24:46.425Z,47.37
2023-04-01T05:25:46.477Z,48.34
2023-04-01T05:26:46.428Z,46.57
2023-04-01T05:27:46.392Z,46.25
2023-04-01T05:28:46.388Z,45.28
2023-04-01T05:29:46.379Z,45.44
2023-04-01T05:30:46.374Z,46.41
2023-04-01T05:31:46.362Z,46.08
2023-04-01T05:32:46.389Z,46.25
2023-04-01T05:33:46.338Z,48.66
2023-04-01T05:34:46.322Z,47.70
2023-04-01T05:35:46.337Z,46.25
2023-04-01T05:36:46.305Z,48.18
2023-04-01T05:37:46.303Z,48.34
2023-04-01T05:38:46.279Z,46.73
2023-04-01T05:39:46.284Z,48.34
2023-04-01T05:40:46.266Z,46.89
2023-04-01T05:41:46.260Z,47.21
2023-04-01T05:42:46.358Z,47.53
2023-04-01T05:43:46.258Z,47.86
2023-04-01T05:44:46.230Z,47.05
2023-04-01T05:45:46.248Z,49.31
2023-04-01T05:46:46.203Z,50.27
2023-04-01T05:47:46.245Z,48.18
2023-04-01T05:48:46.187Z,47.37
2023-04-01T05:49:46.174Z,48.02
2023-04-01T05:50:46.168Z,47.86
2023-04-01T05:51:46.159Z,48.50
2023-04-01T05:52:46.168Z,49.47
2023-04-01T05:53:46.140Z,48.34
2023-04-01T05:54:46.125Z,48.02
2023-04-01T05:55:46.113Z,47.86
2023-04-01T05:56:47.654Z,50.43
2023-04-01T05:57:47.126Z,50.92
2023-04-01T05:58:46.082Z,51.88
2023-04-01T05:59:46.071Z,53.01
2023-04-01T06:00:46.832Z,52.53
2023-04-01T06:01:46.064Z,51.72
2023-04-01T06:02:46.099Z,49.95
2023-04-01T06:03:46.161Z,49.95
2023-04-01T06:04:46.174Z,48.18
2023-04-01T06:05:46.005Z,48.66
2023-04-01T06:06:47.007Z,45.76
2023-04-01T06:07:46.008Z,47.86
2023-04-01T06:08:45.995Z,48.82
2023-04-01T06:09:45.969Z,46.89
2023-04-01T06:10:45.966Z,50.43
2023-04-01T06:11:45.957Z,47.21
2023-04-01T06:12:45.956Z,48.18
2023-04-01T06:13:45.946Z,47.53
2023-04-01T06:14:46.020Z,47.86
2023-04-01T06:15:45.951Z,48.82
2023-04-01T06:16:45.962Z,44.47
2023-04-01T06:17:46.919Z,46.89
2023-04-01T06:18:45.978Z,47.86
2023-04-01T06:19:50.405Z,52.05
2023-04-01T06:20:45.895Z,50.60
2023-04-01T06:21:45.882Z,51.40
2023-04-01T06:22:45.967Z,50.92
2023-04-01T06:23:46.420Z,51.40
2023-04-01T06:24:45.856Z,49.95
2023-04-01T06:25:45.848Z,50.43
2023-04-01T06:26:45.833Z,50.76
2023-04-01T06:27:45.831Z,50.27
2023-04-01T06:28:45.860Z,51.72
2023-04-01T06:29:45.791Z,51.40
2023-04-01T06:30:45.817Z,53.17
2023-04-01T06:31:45.919Z,52.85
2023-04-01T06:32:46.816Z,54.46
2023-04-01T06:33:45.770Z,55.59
2023-04-01T06:34:45.791Z,55.59
2023-04-01T06:35:45.818Z,54.62
2023-04-01T06:36:45.740Z,56.56
2023-04-01T06:37:45.748Z,55.11
2023-04-01T06:38:45.879Z,56.24
2023-04-01T06:39:45.706Z,54.79
2023-04-01T06:40:45.722Z,57.20
2023-04-01T06:41:45.664Z,55.75
2023-04-01T06:42:45.683Z,55.59
2023-04-01T06:43:45.687Z,53.66
2023-04-01T06:44:45.665Z,55.11
2023-04-01T06:45:45.670Z,53.33
2023-04-01T06:46:45.667Z,55.59
2023-04-01T06:47:45.822Z,54.14
2023-04-01T06:48:45.633Z,53.50
2023-04-01T06:49:46.496Z,55.27
2023-04-01T06:50:45.572Z,52.05
2023-04-01T06:51:45.600Z,51.56
2023-04-01T06:52:45.597Z,53.98
2023-04-01T06:53:45.574Z,54.30
2023-04-01T06:54:45.553Z,53.50
2023-04-01T06:55:45.520Z,55.59
2023-04-01T06:56:45.578Z,55.43
2023-04-01T06:57:45.500Z,53.33
2023-04-01T06:58:45.528Z,54.95
2023-04-01T06:59:45.516Z,55.27
2023-04-01T07:00:45.476Z,56.24
2023-04-01T07:01:45.507Z,55.59
2023-04-01T07:02:45.485Z,56.07
2023-04-01T07:03:45.481Z,56.56
2023-04-01T07:04:45.466Z,53.50
2023-04-01T07:05:45.425Z,52.05
2023-04-01T07:06:45.421Z,52.37
2023-04-01T07:07:45.420Z,52.05
2023-04-01T07:08:45.428Z,50.27
2023-04-01T07:09:45.393Z,50.27
2023-04-01T07:10:45.381Z,47.37
2023-04-01T07:11:45.605Z,49.47
2023-04-01T07:12:45.369Z,49.47
2023-04-01T07:13:45.363Z,50.76
2023-04-01T07:14:45.337Z,48.82
2023-04-01T07:15:45.328Z,48.66
2023-04-01T07:16:45.361Z,52.53
2023-04-01T07:17:45.333Z,50.60
2023-04-01T07:18:45.360Z,47.53
2023-04-01T07:19:45.297Z,47.37
2023-04-01T07:20:45.280Z,46.73
2023-04-01T07:21:45.269Z,46.89
2023-04-01T07:22:45.252Z,46.73
2023-04-01T07:23:45.266Z,48.66
2023-04-01T07:24:45.259Z,48.34
2023-04-01T07:25:45.648Z,47.86
2023-04-01T07:26:45.634Z,48.98
2023-04-01T07:27:45.235Z,49.79
2023-04-01T07:28:45.202Z,46.57
2023-04-01T07:29:45.189Z,47.53
2023-04-01T07:30:45.179Z,47.86
2023-04-01T07:31:45.177Z,48.66
2023-04-01T07:32:45.197Z,47.37
2023-04-01T07:33:45.163Z,47.37
2023-04-01T07:34:45.125Z,48.34
2023-04-01T07:35:45.157Z,46.89
2023-04-01T07:36:45.126Z,47.37
2023-04-01T07:37:45.105Z,50.27
2023-04-01T07:38:45.116Z,49.47
2023-04-01T07:39:45.094Z,46.25
2023-04-01T07:40:45.069Z,51.72
2023-04-01T07:41:45.066Z,48.50
2023-04-01T07:42:45.044Z,50.76
2023-04-01T07:43:45.057Z,49.63
2023-04-01T07:44:45.063Z,48.66
2023-04-01T07:45:45.032Z,48.34
2023-04-01T07:46:45.159Z,51.56
2023-04-01T07:47:45.036Z,47.70
2023-04-01T07:48:44.992Z,48.50
2023-04-01T07:49:44.994Z,48.50
2023-04-01T07:50:46.025Z,48.34
2023-04-01T07:51:44.952Z,47.37
2023-04-01T07:52:44.950Z,47.70
2023-04-01T07:53:44.956Z,46.73
2023-04-01T07:54:44.916Z,46.89
2023-04-01T07:55:44.901Z,47.37
2023-04-01T07:56:44.940Z,48.50
2023-04-01T07:57:45.883Z,47.21
2023-04-01T07:58:44.887Z,48.02
2023-04-01T07:59:44.883Z,47.70
2023-04-01T08:00:44.862Z,47.53
2023-04-01T08:01:44.847Z,47.37
2023-04-01T08:02:44.878Z,48.82
2023-04-01T08:03:45.047Z,50.60
2023-04-01T08:04:44.870Z,48.66
2023-04-01T08:05:45.703Z,49.95
2023-04-01T08:06:44.792Z,47.53
2023-04-01T08:07:44.784Z,47.53
2023-04-01T08:08:44.783Z,48.34
2023-04-01T08:09:44.783Z,50.27
2023-04-01T08:10:44.752Z,48.98
2023-04-01T08:11:44.747Z,48.66
2023-04-01T08:12:44.732Z,49.47
2023-04-01T08:13:44.731Z,47.70
2023-04-01T08:14:44.719Z,48.82
2023-04-01T08:15:44.711Z,48.82
2023-04-01T08:16:44.736Z,50.43
2023-04-01T08:17:44.718Z,47.37
2023-04-01T08:18:44.684Z,47.86
2023-04-01T08:19:44.690Z,50.92
2023-04-01T08:20:44.632Z,48.50
2023-04-01T08:21:44.663Z,47.53
2023-04-01T08:22:44.621Z,48.66
2023-04-01T08:23:44.605Z,47.21
2023-04-01T08:24:48.002Z,48.50
2023-04-01T08:25:45.590Z,49.15
2023-04-01T08:26:44.577Z,48.66
2023-04-01T08:27:44.588Z,48.02
2023-04-01T08:28:44.557Z,50.11
2023-04-01T08:29:44.579Z,48.98
2023-04-01T08:30:44.550Z,51.88
2023-04-01T08:31:44.607Z,49.79
2023-04-01T08:32:44.524Z,48.34
2023-04-01T08:33:44.502Z,48.18
2023-04-01T08:34:44.504Z,47.37
2023-04-01T08:35:44.712Z,47.37
2023-04-01T08:36:44.481Z,49.95
2023-04-01T08:37:44.471Z,48.18
2023-04-01T08:38:44.465Z,48.82
2023-04-01T08:39:44.446Z,48.66
2023-04-01T08:40:44.417Z,48.98
2023-04-01T08:41:44.428Z,46.89
2023-04-01T08:42:44.432Z,45.92
2023-04-01T08:43:44.401Z,47.21
2023-04-01T08:44:44.404Z,47.86
2023-04-01T08:45:44.419Z,47.86
2023-04-01T08:46:44.370Z,49.15
2023-04-01T08:47:44.432Z,45.44
2023-04-01T08:48:44.343Z,45.92
2023-04-01T08:49:44.359Z,48.98
2023-04-01T08:50:44.342Z,46.57
2023-04-01T08:51:44.315Z,47.70
2023-04-01T08:52:44.293Z,48.98
2023-04-01T08:53:44.316Z,49.47
2023-04-01T08:54:44.305Z,49.31
2023-04-01T08:55:44.272Z,49.95
2023-04-01T08:56:44.271Z,50.43
2023-04-01T08:57:44.250Z,46.57
2023-04-01T08:58:44.257Z,46.41
2023-04-01T08:59:44.239Z,47.05
2023-04-01T09:00:44.229Z,49.63
2023-04-01T09:01:44.210Z,47.05
2023-04-01T09:02:44.341Z,48.02
2023-04-01T09:03:44.303Z,47.70
2023-04-01T09:04:44.172Z,46.57
2023-04-01T09:05:44.149Z,46.73
2023-04-01T09:06:44.145Z,49.15
2023-04-01T09:07:44.137Z,45.60
2023-04-01T09:08:45.121Z,45.76
2023-04-01T09:09:44.140Z,47.37
2023-04-01T09:10:44.116Z,47.86
2023-04-01T09:11:44.107Z,47.21
2023-04-01T09:12:44.078Z,48.18
2023-04-01T09:13:44.070Z,47.70
2023-04-01T09:14:44.075Z,47.37
2023-04-01T09:15:44.081Z,47.21
2023-04-01T09:16:44.072Z,47.70
2023-04-01T09:17:44.066Z,48.18
2023-04-01T09:18:44.029Z,48.98
2023-04-01T09:19:44.031Z,49.15
2023-04-01T09:20:44.000Z,48.98
2023-04-01T09:21:43.994Z,46.57
2023-04-01T09:22:43.977Z,45.76
2023-04-01T09:23:43.964Z,47.53
2023-04-01T09:24:43.976Z,47.05
2023-04-01T09:25:43.950Z,46.73
2023-04-01T09:26:43.942Z,48.02
2023-04-01T09:27:43.926Z,48.66
2023-04-01T09:28:43.944Z,46.41
2023-04-01T09:29:43.919Z,44.79
2023-04-01T09:30:43.900Z,47.05
2023-04-01T09:31:43.982Z,47.53
2023-04-01T09:32:43.895Z,48.98
2023-04-01T09:33:43.864Z,47.70
2023-04-01T09:34:43.869Z,47.37
2023-04-01T09:35:43.892Z,48.34
2023-04-01T09:36:43.833Z,47.86
2023-04-01T09:37:43.833Z,51.24
2023-04-01T09:38:43.828Z,47.37
2023-04-01T09:39:43.890Z,47.21
2023-04-01T09:40:43.824Z,46.57
2023-04-01T09:41:43.809Z,46.57
2023-04-01T09:42:43.831Z,45.76
2023-04-01T09:43:43.777Z,46.57
2023-04-01T09:44:43.810Z,48.50
2023-04-01T09:45:43.772Z,47.53
2023-04-01T09:46:43.881Z,46.57
2023-04-01T09:47:43.891Z,44.96
2023-04-01T09:48:44.422Z,47.37
2023-04-01T09:49:43.731Z,49.63
2023-04-01T09:50:43.728Z,48.02
2023-04-01T09:51:43.716Z,52.05
2023-04-01T09:52:45.352Z,51.40
2023-04-01T09:53:43.705Z,54.46
2023-04-01T09:54:43.695Z,54.62
2023-04-01T09:55:43.690Z,48.50
2023-04-01T09:56:43.635Z,48.18
2023-04-01T09:57:44.643Z,48.34
2023-04-01T09:58:44.231Z,44.79
2023-04-01T09:59:43.645Z,46.25
2023-04-01T10:00:43.640Z,48.34
2023-04-01T10:01:43.677Z,48.66
2023-04-01T10:02:43.680Z,47.53
2023-04-01T10:03:43.593Z,48.34
2023-04-01T10:04:43.569Z,46.57
2023-04-01T10:05:43.579Z,45.28
2023-04-01T10:06:43.551Z,47.86
2023-04-01T10:07:43.540Z,47.53
2023-04-01T10:08:43.535Z,46.08
2023-04-01T10:09:43.531Z,45.92
2023-04-01T10:10:43.530Z,44.96
2023-04-01T10:11:43.513Z,46.57
2023-04-01T10:12:43.516Z,48.18
2023-04-01T10:13:43.492Z,47.53
2023-04-01T10:14:43.469Z,48.50
2023-04-01T10:15:43.497Z,49.47
2023-04-01T10:16:43.529Z,48.18
2023-04-01T10:17:43.503Z,49.63
2023-04-01T10:18:43.440Z,52.37
2023-04-01T10:19:43.443Z,51.40
2023-04-01T10:20:43.429Z,52.69
2023-04-01T10:21:43.428Z,50.76
2023-04-01T10:22:43.421Z,52.37
2023-04-01T10:23:43.403Z,51.24
2023-04-01T10:24:43.378Z,52.69
2023-04-01T10:25:43.386Z,52.53
2023-04-01T10:26:43.363Z,49.47
2023-04-01T10:27:43.368Z,53.98
2023-04-01T10:28:43.330Z,54.14
2023-04-01T10:29:43.362Z,54.79
2023-04-01T10:30:43.337Z,52.05
2023-04-01T10:31:43.360Z,51.72
2023-04-01T10:32:43.642Z,52.37
2023-04-01T10:33:43.288Z,52.21
2023-04-01T10:34:43.276Z,53.01
2023-04-01T10:35:43.310Z,52.37
2023-04-01T10:36:44.263Z,50.11
2023-04-01T10:37:43.262Z,51.56
2023-04-01T10:38:43.299Z,49.15
2023-04-01T10:39:43.248Z,48.82
2023-04-01T10:40:43.239Z,50.27
2023-04-01T10:41:43.181Z,49.95
2023-04-01T10:42:43.158Z,50.11
2023-04-01T10:43:43.158Z,48.98
2023-04-01T10:44:43.138Z,49.79
2023-04-01T10:45:43.226Z,49.63
2023-04-01T10:46:43.137Z,49.95
2023-04-01T10:47:43.138Z,49.79
2023-04-01T10:48:43.117Z,48.66
2023-04-01T10:49:43.097Z,48.98
2023-04-01T10:50:43.083Z,50.92
2023-04-01T10:51:43.074Z,47.05
2023-04-01T10:52:43.062Z,48.34
2023-04-01T10:53:43.054Z,48.34
2023-04-01T10:54:43.033Z,51.08
2023-04-01T10:55:43.047Z,48.50
2023-04-01T10:56:43.021Z,49.15
2023-04-01T10:57:43.004Z,49.47
2023-04-01T10:58:42.990Z,48.66
2023-04-01T10:59:43.015Z,52.05
2023-04-01T11:00:43.051Z,49.95
2023-04-01T11:01:43.112Z,47.21
2023-04-01T11:02:43.048Z,47.37
2023-04-01T11:03:43.037Z,47.86
2023-04-01T11:04:42.926Z,50.43
2023-04-01T11:05:42.946Z,51.08
2023-04-01T11:06:42.916Z,48.34
2023-04-01T11:07:44.061Z,46.25
2023-04-01T11:08:42.896Z,45.92
2023-04-01T11:09:42.874Z,46.25
2023-04-01T11:10:42.900Z,45.76
2023-04-01T11:11:42.870Z,46.73
2023-04-01T11:12:42.850Z,44.63
2023-04-01T11:13:42.899Z,46.25
2023-04-01T11:14:42.855Z,47.05
2023-04-01T11:15:42.900Z,45.44
2023-04-01T11:16:42.929Z,45.28
2023-04-01T11:17:42.829Z,43.83
2023-04-01T11:18:42.787Z,44.96
2023-04-01T11:19:42.784Z,45.76
2023-04-01T11:20:42.771Z,44.31
2023-04-01T11:21:42.770Z,45.12
2023-04-01T11:22:42.757Z,46.25
2023-04-01T11:23:44.003Z,44.47
2023-04-01T11:24:42.724Z,46.25
2023-04-01T11:25:42.722Z,46.41
2023-04-01T11:26:42.771Z,45.76
2023-04-01T11:27:42.689Z,45.76
2023-04-01T11:28:42.683Z,48.82
2023-04-01T11:29:56.729Z,48.98
2023-04-01T11:30:44.665Z,45.28
2023-04-01T11:31:42.701Z,45.92
2023-04-01T11:32:42.687Z,44.79
2023-04-01T11:33:42.643Z,46.73
2023-04-01T11:34:42.630Z,47.21
2023-04-01T11:35:42.690Z,44.63
2023-04-01T11:36:43.994Z,45.92
2023-04-01T11:37:42.665Z,44.79
2023-04-01T11:38:42.596Z,43.67
2023-04-01T11:39:42.601Z,44.96
2023-04-01T11:40:42.561Z,47.05
2023-04-01T11:44:30.620Z,43.51
2023-04-01T11:45:09.578Z,44.15
2023-04-01T11:46:09.615Z,44.15
2023-04-01T11:47:09.559Z,46.57
2023-04-01T11:48:09.632Z,45.28
2023-04-01T11:49:09.535Z,46.25
2023-04-01T11:50:09.522Z,47.05
2023-04-01T11:51:09.524Z,48.66
2023-04-01T11:52:09.502Z,50.76
2023-04-01T11:53:09.510Z,49.95
2023-04-01T11:54:09.481Z,48.02
2023-04-01T11:55:09.479Z,52.85
2023-04-01T11:56:09.465Z,54.95
2023-04-01T11:57:09.487Z,49.95
2023-04-01T11:58:09.441Z,49.63
2023-04-01T11:59:09.443Z,48.02
2023-04-01T12:00:09.426Z,45.28
2023-04-01T12:02:11.755Z,47.21
2023-04-01T12:03:09.451Z,45.28
2023-04-01T12:04:09.489Z,48.18
2023-04-01T12:05:09.371Z,46.08
2023-04-01T12:06:09.367Z,46.73
2023-04-01T12:07:09.362Z,46.25
2023-04-01T12:08:09.364Z,45.76
2023-04-01T12:09:09.329Z,46.89
2023-04-01T12:10:09.326Z,45.92
2023-04-01T12:11:09.308Z,44.96
2023-04-01T12:12:09.314Z,45.76
2023-04-01T12:13:09.284Z,45.92
2023-04-01T12:14:09.288Z,45.44
2023-04-01T12:15:09.271Z,44.31
2023-04-01T12:16:09.301Z,44.63
2023-04-01T12:17:09.254Z,44.15
2023-04-01T12:18:09.269Z,43.99
2023-04-01T12:19:09.230Z,44.31
2023-04-01T12:20:09.219Z,44.31
2023-04-01T12:21:09.209Z,44.63
2023-04-01T12:22:09.215Z,43.83
2023-04-01T12:23:09.182Z,45.28
2023-04-01T12:24:09.182Z,44.47
2023-04-01T12:25:09.169Z,44.15
2023-04-01T12:26:09.156Z,47.05
2023-04-01T12:27:09.157Z,48.34
2023-04-01T12:28:09.144Z,49.95
2023-04-01T12:29:09.140Z,51.56
2023-04-01T12:30:09.193Z,54.79
2023-04-01T12:31:09.103Z,56.72
2023-04-01T12:32:09.162Z,48.34
2023-04-01T12:33:09.122Z,49.15
2023-04-01T12:34:09.080Z,47.70
2023-04-01T12:35:09.064Z,45.92
2023-04-01T12:36:09.105Z,48.66
2023-04-01T12:37:09.059Z,50.60
2023-04-01T12:38:09.035Z,51.08
2023-04-01T12:39:09.024Z,49.63
2023-04-01T12:40:09.036Z,54.46
2023-04-01T12:41:09.002Z,53.01
2023-04-01T12:42:09.005Z,53.66
2023-04-01T12:43:08.978Z,50.11
2023-04-01T12:44:08.974Z,52.53
2023-04-01T12:45:08.959Z,46.89
2023-04-01T12:46:08.961Z,45.12
2023-04-01T12:47:08.945Z,45.76
2023-04-01T12:48:08.962Z,44.47
2023-04-01T12:49:08.912Z,46.08
2023-04-01T12:50:09.022Z,44.79
2023-04-01T12:51:08.894Z,46.41
2023-04-01T12:52:08.893Z,47.21
2023-04-01T12:53:08.873Z,49.15
2023-04-01T12:54:08.860Z,47.86
2023-04-01T12:55:08.847Z,46.57
2023-04-01T12:56:08.839Z,48.34